Time;durP1;ratioP1;P1;durP2;ratioP2;P2;SDS_P1;SDS_P2;PMS_P1;PMS_P2;Temp;Humidity;BMP_temperature;BMP_pressure;BME280_temperature;BME280_humidity;BME280_pressure;Samples;Min_cycle;Max_cycle;Signal;HPM_P1;HPM_P2
2023/10/11 00:00:40;;;;;;;;;;;;;;;;;;5033228;28;20023;-88
2023/10/11 00:03:14;;;;;;;;;;;;;;;;;;5012401;28;19982;-88
2023/10/11 00:05:40;;;;;;;;;;;;;;;;;;5017854;28;20072;-91
2023/10/11 00:08:07;;;;;;;;;;;;;;;;;;5015274;28;19912;-88
2023/10/11 00:10:33;;;;;;;;;;;;;;;;;;5032850;28;20023;-87
2023/10/11 00:12:58;;;;;;;;;;;;;;;;;;5034300;28;20025;-87
2023/10/11 00:15:26;;;;;;;;;;;;;;;;;;5014994;28;19927;-88
2023/10/11 00:17:52;;;;;;;;;;;;;;;;;;5028664;28;19923;-85
2023/10/11 00:20:47;;;;;;;;;;;;;;;;;;5032592;28;19924;-88
2023/10/11 00:23:17;;;;;;;;;;;;;;;;;;5018894;28;20255;-87
2023/10/11 00:25:44;;;;;;;;;;;;;;;;;;5019894;28;19913;-88
2023/10/11 00:28:10;;;;;;;;;;;;;;;;;;5035040;28;19921;-87
2023/10/11 00:30:38;;;;;;;;;;;;;;;;;;5017887;28;20008;-87
2023/10/11 00:33:06;;;;;;;;;;;;;;;;;;5014152;28;19921;-88
2023/10/11 00:35:32;;;;;;;;;;;;;;;;;;5036113;28;20043;-89
2023/10/11 00:38:00;;;;;;;;;;;;;;;;;;5057522;28;19912;-87
2023/10/11 00:40:32;;;;;;;;;;;;;;;;;;5037779;28;19913;-89
2023/10/11 00:42:57;;;;;;;;;;;;;;;;;;5021461;28;20016;-87
2023/10/11 00:45:31;;;;;;;;;;;;;;;;;;5022603;28;19963;-85
2023/10/11 00:47:59;;;;;;;;;;;;;;;;;;5042126;28;19991;-86
2023/10/11 00:50:24;;;;;;;;;;;;;;;;;;5041159;28;19921;-88
2023/10/11 00:52:55;;;;;;;;;;;;;;;;;;5022491;28;20222;-86
2023/10/11 00:55:23;;;;;;;;;;;;;;;;;;5025325;28;19986;-87
2023/10/11 00:57:48;;;;;;;;;;;;;;;;;;5030113;28;19939;-86
2023/10/11 01:00:16;;;;;;;;;;;;;;;;;;5048585;28;19978;-89
2023/10/11 01:02:47;;;;;;;;;;;;;;;;;;5035131;28;19913;-88
2023/10/11 01:05:12;;;;;;;;;;;;;;;;;;5035394;28;19916;-88
2023/10/11 01:07:38;;;;;;;;;;;;;;;;;;5034830;28;19923;-89
2023/10/11 01:10:04;;;;;;;;;;;;;;;;;;5032632;28;19920;-86
2023/10/11 01:12:30;;;;;;;;;;;;;;;;;;5053467;28;19970;-86
2023/10/11 01:14:58;;;;;;;;;;;;;;;;;;5037553;28;19984;-86
2023/10/11 01:17:31;;;;;;;;;;;;;;;;;;5054035;28;19948;-88
2023/10/11 01:20:00;;;;;;;;;;;;;;;;;;5034207;28;19948;-88
2023/10/11 01:22:26;;;;;;;;;;;;;;;;;;5031565;28;19901;-87
2023/10/11 01:24:54;;;;;;;;;;;;;;;;;;5034119;28;19917;-89
2023/10/11 01:27:22;;;;;;;;;;;;;;;;;;5028049;28;19984;-87
2023/10/11 01:29:51;;;;;;;;;;;;;;;;;;5028349;28;19939;-87
2023/10/11 01:32:29;;;;;;;;;;;;;;;;;;5040887;28;19948;-86
2023/10/11 01:34:54;;;;;;;;;;;;;;;;;;5020340;28;19913;-86
2023/10/11 01:37:20;;;;;;;;;;;;;;;;;;5024181;28;19921;-87
2023/10/11 01:39:45;;;;;;;;;;;;;;;;;;5021230;28;19913;-87
2023/10/11 01:42:10;;;;;;;;;;;;;;;;;;5019896;28;19928;-86
2023/10/11 01:44:38;;;;;;;;;;;;;;;;;;5033900;28;19926;-87
2023/10/11 01:47:05;;;;;;;;;;;;;;;;;;5036614;28;20528;-88
2023/10/11 01:49:37;;;;;;;;;;;;;;;;;;5019782;28;19927;-89
2023/10/11 01:52:06;;;;;;;;;;;;;;;;;;5017679;28;19917;-87
2023/10/11 01:54:35;;;;;;;;;;;;;;;;;;5028957;28;19921;-87
2023/10/11 01:57:01;;;;;;;;;;;;;;;;;;5017782;28;20361;-87
2023/10/11 01:59:27;;;;;;;;;;;;;;;;;;5017731;28;19972;-89
2023/10/11 02:02:03;;;;;;;;;;;;;;;;;;5017358;28;19944;-87
2023/10/11 02:04:30;;;;;;;;;;;;;;;;;;4999656;28;20343;-88
2023/10/11 02:06:57;;;;;;;;;;;;;;;;;;5000835;28;19913;-88
2023/10/11 02:09:23;;;;;;;;;;;;;;;;;;4990181;28;19924;-87
2023/10/11 02:11:52;;;;;;;;;;;;;;;;;;5000760;28;19916;-87
2023/10/11 02:14:18;;;;;;;;;;;;;;;;;;5002295;28;19933;-88
2023/10/11 02:16:45;;;;;;;;;;;;;;;;;;5014074;28;19914;-86
2023/10/11 02:19:15;;;;;;;;;;;;;;;;;;5009535;28;19920;-87
2023/10/11 02:21:43;;;;;;;;;;;;;;;;;;4993756;28;19975;-87
2023/10/11 02:24:09;;;;;;;;;;;;;;;;;;5000750;28;19975;-87
2023/10/11 02:26:49;;;;;;;;;;;;;;;;;;5018535;28;20020;-87
2023/10/11 02:29:24;;;;;;;;;;;;;;;;;;4999663;28;19980;-88
2023/10/11 02:31:50;;;;;;;;;;;;;;;;;;5002955;28;19931;-86
2023/10/11 02:34:18;;;;;;;;;;;;;;;;;;4995999;28;19917;-85
2023/10/11 02:36:44;;;;;;;;;;;;;;;;;;5000614;28;20301;-86
2023/10/11 02:39:17;;;;;;;;;;;;;;;;;;5006009;28;20005;-86
2023/10/11 02:41:57;;;;;;;;;;;;;;;;;;5009180;28;19917;-88
2023/10/11 02:44:26;;;;;;;;;;;;;;;;;;4999941;28;19943;-89
2023/10/11 02:46:51;;;;;;;;;;;;;;;;;;5013234;28;19913;-85
2023/10/11 02:49:20;;;;;;;;;;;;;;;;;;5002572;28;20339;-86
2023/10/11 02:51:52;;;;;;;;;;;;;;;;;;4999092;28;19913;-86
2023/10/11 02:54:17;;;;;;;;;;;;;;;;;;4997288;28;19920;-87
2023/10/11 02:56:49;;;;;;;;;;;;;;;;;;5005392;28;19913;-87
2023/10/11 02:59:23;;;;;;;;;;;;;;;;;;5012867;28;20344;-87
2023/10/11 03:01:59;;;;;;;;;;;;;;;;;;5017052;28;19920;-88
2023/10/11 03:04:27;;;;;;;;;;;;;;;;;;5020538;28;19921;-88
2023/10/11 03:06:53;;;;;;;;;;;;;;;;;;5018254;28;21552;-88
2023/10/11 03:09:18;;;;;;;;;;;;;;;;;;5033673;28;19912;-89
2023/10/11 03:11:45;;;;;;;;;;;;;;;;;;5017891;28;20008;-88
2023/10/11 03:14:12;;;;;;;;;;;;;;;;;;5025751;28;19928;-87
2023/10/11 03:16:42;;;;;;;;;;;;;;;;;;5019487;28;19999;-90
2023/10/11 03:19:11;;;;;;;;;;;;;;;;;;5039498;28;19912;-90
2023/10/11 03:21:40;;;;;;;;;;;;;;;;;;5044321;28;19912;-85
2023/10/11 03:24:06;;;;;;;;;;;;;;;;;;5028325;28;19913;-86
2023/10/11 03:26:38;;;;;;;;;;;;;;;;;;5032967;28;19925;-84
2023/10/11 03:29:05;;;;;;;;;;;;;;;;;;5039940;28;19939;-85
2023/10/11 03:31:31;;;;;;;;;;;;;;;;;;5033486;28;19928;-84
2023/10/11 03:33:57;;;;;;;;;;;;;;;;;;5037648;28;19913;-84
2023/10/11 03:36:43;;;;;;;;;;;;;;;;;;5038438;28;19931;-87
2023/10/11 03:39:09;;;;;;;;;;;;;;;;;;5040792;28;19999;-87
2023/10/11 03:41:35;;;;;;;;;;;;;;;;;;5040667;28;19984;-85
2023/10/11 03:44:09;;;;;;;;;;;;;;;;;;5040496;28;19913;-86
2023/10/11 03:46:35;;;;;;;;;;;;;;;;;;5037978;28;19931;-85
2023/10/11 03:51:47;;;;;;;;;;;;;;;;;;5050812;28;20011;-85
2023/10/11 03:54:19;;;;;;;;;;;;;;;;;;5039343;28;19947;-86
2023/10/11 03:56:51;;;;;;;;;;;;;;;;;;5036321;28;19921;-88
2023/10/11 03:59:16;;;;;;;;;;;;;;;;;;5017336;28;19923;-86
2023/10/11 04:01:43;;;;;;;;;;;;;;;;;;5017847;28;19921;-86
2023/10/11 04:04:08;;;;;;;;;;;;;;;;;;5028586;28;19920;-88
2023/10/11 04:06:34;;;;;;;;;;;;;;;;;;5016799;28;19932;-87
2023/10/11 04:09:03;;;;;;;;;;;;;;;;;;5031728;28;19920;-87
2023/10/11 04:11:37;;;;;;;;;;;;;;;;;;5022193;28;19913;-87
2023/10/11 04:14:02;;;;;;;;;;;;;;;;;;5017876;28;19925;-88
2023/10/11 04:16:28;;;;;;;;;;;;;;;;;;5015430;28;19931;-89
2023/10/11 04:18:55;;;;;;;;;;;;;;;;;;5016847;28;19931;-89
2023/10/11 04:23:54;;;;;;;;;;;;;;;;;;5029879;28;19964;-88
2023/10/11 04:26:26;;;;;;;;;;;;;;;;;;5015233;28;20554;-88
2023/10/11 04:28:52;;;;;;;;;;;;;;;;;;5012308;28;19912;-86
2023/10/11 04:31:36;;;;;;;;;;;;;;;;;;5012691;28;19971;-85
2023/10/11 04:34:01;;;;;;;;;;;;;;;;;;5010424;28;20354;-89
2023/10/11 04:36:28;;;;;;;;;;;;;;;;;;5017833;28;19917;-88
2023/10/11 04:39:03;;;;;;;;;;;;;;;;;;5020005;28;20348;-88
2023/10/11 04:41:38;;;;;;;;;;;;;;;;;;5016153;28;20307;-87
2023/10/11 04:44:13;;;;;;;;;;;;;;;;;;5052360;28;19947;-88
2023/10/11 04:46:44;;;;;;;;;;;;;;;;;;5036936;28;19913;-89
2023/10/11 04:49:18;;;;;;;;;;;;;;;;;;5019014;28;19966;-86
2023/10/11 04:51:45;;;;;;;;;;;;;;;;;;5023761;28;20011;-88
2023/10/11 04:54:13;;;;;;;;;;;;;;;;;;5019609;28;19917;-88
2023/10/11 04:59:19;;;;;;;;;;;;;;;;;;5035050;28;19959;-87
2023/10/11 05:04:14;;;;;;;;;;;;;;;;;;5052864;28;19913;-87
2023/10/11 05:06:40;;;;;;;;;;;;;;;;;;5017551;28;19928;-86
2023/10/11 05:09:13;;;;;;;;;;;;;;;;;;5020034;28;19995;-89
2023/10/11 05:11:43;;;;;;;;;;;;;;;;;;5019128;28;19913;-86
2023/10/11 05:16:58;;;;;;;;;;;;;;;;;;5036708;28;19996;-89
2023/10/11 05:19:24;;;;;;;;;;;;;;;;;;5016450;28;19913;-87
2023/10/11 05:21:53;;;;;;;;;;;;;;;;;;5033704;28;19939;-86
2023/10/11 05:27:35;;;;;;;;;;;;;;;;;;5043605;28;19916;-88
2023/10/11 05:52:00;;;;;;;;;;;;;;;;;;5044700;28;19917;-86
2023/10/11 05:54:34;;;;;;;;;;;;;;;;;;5060391;28;19924;-88
2023/10/11 05:57:03;;;;;;;;;;;;;;;;;;5029449;28;19927;-87
2023/10/11 05:59:29;;;;;;;;;;;;;;;;;;5038668;28;20047;-89
2023/10/11 06:01:55;;;;;;;;;;;;;;;;;;5023698;28;20008;-88
2023/10/11 06:04:24;;;;;;;;;;;;;;;;;;5019494;28;19924;-87
2023/10/11 06:06:57;;;;;;;;;;;;;;;;;;5020419;28;19928;-87
2023/10/11 06:09:26;;;;;;;;;;;;;;;;;;5023359;28;19939;-87
2023/10/11 06:11:57;;;;;;;;;;;;;;;;;;5026373;28;19912;-87
2023/10/11 06:14:23;;;;;;;;;;;;;;;;;;5021102;28;19924;-88
2023/10/11 06:16:58;;;;;;;;;;;;;;;;;;5020997;28;19920;-86
2023/10/11 06:19:27;;;;;;;;;;;;;;;;;;5021428;28;19960;-88
2023/10/11 06:21:57;;;;;;;;;;;;;;;;;;5020201;28;19931;-88
2023/10/11 06:24:23;;;;;;;;;;;;;;;;;;5035603;28;19916;-91
2023/10/11 06:26:54;;;;;;;;;;;;;;;;;;5019743;28;19990;-89
2023/10/11 06:29:29;;;;;;;;;;;;;;;;;;5014836;28;19913;-90
2023/10/11 06:31:55;;;;;;;;;;;;;;;;;;5034700;28;19913;-91
2023/10/11 06:34:32;;;;;;;;;;;;;;;;;;5018826;28;19931;-89
2023/10/11 06:37:00;;;;;;;;;;;;;;;;;;5020487;28;19913;-89
2023/10/11 06:42:31;;;;;;;;;;;;;;;;;;4988233;28;19949;-90
2023/10/11 06:44:59;;;;;;;;;;;;;;;;;;4953654;28;19918;-91
2023/10/11 06:47:49;;;;;;;;;;;;;;;;;;4987235;28;19922;-90
2023/10/11 06:50:15;;;;;;;;;;;;;;;;;;4994289;28;19924;-89
2023/10/11 06:52:47;;;;;;;;;;;;;;;;;;5019775;28;20555;-91
2023/10/11 06:57:39;;;;;;;;;;;;;;;;;;5037621;28;19975;-92
2023/10/11 07:01:14;;;;;;;;;;;;;;;;;;5020819;28;20377;-89
2023/10/11 07:05:47;;;;;;;;;;;;;;;;;;5054628;28;19912;-87
2023/10/11 07:08:17;;;;;;;;;;;;;;;;;;5024794;28;19928;-89
2023/10/11 07:11:04;;;;;;;;;;;;;;;;;;5036067;28;19920;-89
2023/10/11 07:13:49;;;;;;;;;;;;;;;;;;5038644;28;19936;-91
2023/10/11 07:16:22;;;;;;;;;;;;;;;;;;5039699;28;19913;-89
2023/10/11 07:18:47;;;;;;;;;;;;;;;;;;5022543;28;19962;-90
2023/10/11 07:21:16;;;;;;;;;;;;;;;;;;5038195;28;19927;-89
2023/10/11 07:29:20;;;;;;;;;;;;;;;;;;5056455;28;20334;-91
2023/10/11 07:31:52;;;;;;;;;;;;;;;;;;5020229;28;19913;-92
2023/10/11 07:34:25;;;;;;;;;;;;;;;;;;5025049;28;19921;-87
2023/10/11 07:36:55;;;;;;;;;;;;;;;;;;5025161;28;20405;-89
2023/10/11 07:41:49;;;;;;;;;;;;;;;;;;5058304;28;19912;-88
2023/10/11 07:44:19;;;;;;;;;;;;;;;;;;5025213;28;19916;-88
2023/10/11 07:46:47;;;;;;;;;;;;;;;;;;5038152;28;19935;-88
2023/10/11 07:49:24;;;;;;;;;;;;;;;;;;5024022;28;20015;-89
2023/10/11 07:51:53;;;;;;;;;;;;;;;;;;5044960;28;19913;-87
2023/10/11 07:54:21;;;;;;;;;;;;;;;;;;5058860;28;19928;-88
2023/10/11 07:56:56;;;;;;;;;;;;;;;;;;5022773;28;19917;-90
2023/10/11 07:59:26;;;;;;;;;;;;;;;;;;5024627;28;19952;-86
2023/10/11 08:01:53;;;;;;;;;;;;;;;;;;5033530;28;19922;-88
2023/10/11 08:04:21;;;;;;;;;;;;;;;;;;5030919;28;20338;-89
2023/10/11 08:06:47;;;;;;;;;;;;;;;;;;5012088;28;19917;-89
2023/10/11 08:09:19;;;;;;;;;;;;;;;;;;5015298;28;19928;-89
2023/10/11 08:11:56;;;;;;;;;;;;;;;;;;5015689;28;19914;-89
2023/10/11 08:14:22;;;;;;;;;;;;;;;;;;5016585;28;19921;-89
2023/10/11 08:16:52;;;;;;;;;;;;;;;;;;5016223;28;20357;-89
2023/10/11 08:19:17;;;;;;;;;;;;;;;;;;5018132;28;20317;-90
2023/10/11 08:21:54;;;;;;;;;;;;;;;;;;5035056;28;19924;-90
2023/10/11 08:24:24;;;;;;;;;;;;;;;;;;5034625;28;19921;-89
2023/10/11 08:26:54;;;;;;;;;;;;;;;;;;5018882;28;20028;-91
2023/10/11 08:29:30;;;;;;;;;;;;;;;;;;5045328;28;19991;-91
2023/10/11 08:31:58;;;;;;;;;;;;;;;;;;5016343;28;19943;-88
2023/10/11 08:34:28;;;;;;;;;;;;;;;;;;5034363;28;19960;-88
2023/10/11 08:37:01;;;;;;;;;;;;;;;;;;5017986;28;19928;-90
2023/10/11 08:39:36;;;;;;;;;;;;;;;;;;5021537;28;19940;-87
2023/10/11 08:42:06;;;;;;;;;;;;;;;;;;5033296;28;19905;-89
2023/10/11 08:44:32;;;;;;;;;;;;;;;;;;5036551;28;19977;-88
2023/10/11 08:47:01;;;;;;;;;;;;;;;;;;5036256;28;19905;-88
2023/10/11 08:49:48;;;;;;;;;;;;;;;;;;5053754;28;19975;-86
2023/10/11 08:52:13;;;;;;;;;;;;;;;;;;5038604;28;19935;-87
2023/10/11 08:54:40;;;;;;;;;;;;;;;;;;5053540;28;19913;-89
2023/10/11 08:57:07;;;;;;;;;;;;;;;;;;5038742;28;19928;-89
2023/10/11 08:59:32;;;;;;;;;;;;;;;;;;5042092;28;20009;-88
2023/10/11 09:02:09;;;;;;;;;;;;;;;;;;5041682;28;19932;-89
2023/10/11 09:04:36;;;;;;;;;;;;;;;;;;5041829;28;19916;-86
2023/10/11 09:07:07;;;;;;;;;;;;;;;;;;5039517;28;19948;-90
2023/10/11 09:09:42;;;;;;;;;;;;;;;;;;5039693;28;20030;-91
2023/10/11 09:12:27;;;;;;;;;;;;;;;;;;5029020;28;19928;-91
2023/10/11 09:15:04;;;;;;;;;;;;;;;;;;5034212;28;19951;-89
2023/10/11 09:17:38;;;;;;;;;;;;;;;;;;5045001;28;19913;-90
2023/10/11 09:20:15;;;;;;;;;;;;;;;;;;5049601;28;19924;-89
2023/10/11 09:22:41;;;;;;;;;;;;;;;;;;5065359;28;19995;-90
2023/10/11 09:25:08;;;;;;;;;;;;;;;;;;5032052;28;20262;-91
2023/10/11 09:27:39;;;;;;;;;;;;;;;;;;5053377;28;19912;-91
2023/10/11 09:30:04;;;;;;;;;;;;;;;;;;5032678;28;19984;-88
2023/10/11 09:32:32;;;;;;;;;;;;;;;;;;5048795;28;19917;-91
2023/10/11 09:35:01;;;;;;;;;;;;;;;;;;5039510;28;19936;-88
2023/10/11 09:37:33;;;;;;;;;;;;;;;;;;5026657;28;20000;-92
2023/10/11 09:40:08;;;;;;;;;;;;;;;;;;5034643;28;19920;-91
2023/10/11 09:46:11;;;;;;;;;;;;;;;;;;4996755;28;19947;-91
2023/10/11 09:48:39;;;;;;;;;;;;;;;;;;5023617;28;19913;-90
2023/10/11 09:51:08;;;;;;;;;;;;;;;;;;5045988;28;19923;-89
2023/10/11 09:53:35;;;;;;;;;;;;;;;;;;5024310;28;20187;-88
2023/10/11 09:56:15;;;;;;;;;;;;;;;;;;5046003;28;19913;-90
2023/10/11 09:58:41;;;;;;;;;;;;;;;;;;5043213;28;19920;-91
2023/10/11 10:01:11;;;;;;;;;;;;;;;;;;5042856;28;20242;-91
2023/10/11 10:03:38;;;;;;;;;;;;;;;;;;5026409;28;19924;-92
2023/10/11 10:06:21;;;;;;;;;;;;;;;;;;5043896;28;19963;-90
2023/10/11 10:08:51;;;;;;;;;;;;;;;;;;5031512;28;19917;-89
2023/10/11 10:11:32;;;;;;;;;;;;;;;;;;5044402;28;20335;-89
2023/10/11 10:13:58;;;;;;;;;;;;;;;;;;5026582;28;19932;-90
2023/10/11 10:16:32;;;;;;;;;;;;;;;;;;5042333;28;19943;-91
2023/10/11 10:18:58;;;;;;;;;;;;;;;;;;5022893;28;19917;-91
2023/10/11 10:21:23;;;;;;;;;;;;;;;;;;5024942;28;19913;-90
2023/10/11 10:23:51;;;;;;;;;;;;;;;;;;5055501;28;19912;-90
2023/10/11 10:26:19;;;;;;;;;;;;;;;;;;5015868;28;19939;-88
2023/10/11 10:28:51;;;;;;;;;;;;;;;;;;5035573;28;20310;-89
2023/10/11 10:31:17;;;;;;;;;;;;;;;;;;5054814;28;19920;-89
2023/10/11 10:33:51;;;;;;;;;;;;;;;;;;5027394;28;19929;-88
2023/10/11 10:36:17;;;;;;;;;;;;;;;;;;5054350;28;19912;-91
2023/10/11 10:38:46;;;;;;;;;;;;;;;;;;5027545;28;20179;-89
2023/10/11 10:41:12;;;;;;;;;;;;;;;;;;5054647;28;19920;-89
2023/10/11 10:43:58;;;;;;;;;;;;;;;;;;5035414;28;19912;-89
2023/10/11 10:46:39;;;;;;;;;;;;;;;;;;5050319;28;19927;-90
2023/10/11 10:49:32;;;;;;;;;;;;;;;;;;5044312;28;19967;-89
2023/10/11 10:52:00;;;;;;;;;;;;;;;;;;5029743;28;20002;-91
2023/10/11 10:54:47;;;;;;;;;;;;;;;;;;5029655;28;19924;-90
2023/10/11 10:57:16;;;;;;;;;;;;;;;;;;5028978;28;19930;-90
2023/10/11 10:59:45;;;;;;;;;;;;;;;;;;5038665;28;19996;-89
2023/10/11 11:02:10;;;;;;;;;;;;;;;;;;5033582;28;20542;-90
2023/10/11 11:04:46;;;;;;;;;;;;;;;;;;5024329;28;19923;-90
2023/10/11 11:07:19;;;;;;;;;;;;;;;;;;5040204;28;19916;-88
2023/10/11 11:09:57;;;;;;;;;;;;;;;;;;5043210;28;19944;-88
2023/10/11 11:12:28;;;;;;;;;;;;;;;;;;5028026;28;19916;-87
2023/10/11 11:14:56;;;;;;;;;;;;;;;;;;5033770;28;19916;-87
2023/10/11 11:20:41;;;;;;;;;;;;;;;;;;5065598;28;19959;-88
2023/10/11 11:23:09;;;;;;;;;;;;;;;;;;5036204;28;19913;-88
2023/10/11 11:25:43;;;;;;;;;;;;;;;;;;5069715;28;19991;-89
2023/10/11 11:28:17;;;;;;;;;;;;;;;;;;5038099;28;19936;-90
2023/10/11 11:31:40;;;;;;;;;;;;;;;;;;5036016;28;19923;-89
2023/10/11 11:34:15;;;;;;;;;;;;;;;;;;5057993;28;19928;-88
2023/10/11 11:36:46;;;;;;;;;;;;;;;;;;5053276;28;19923;-91
2023/10/11 11:41:58;;;;;;;;;;;;;;;;;;5047833;28;20017;-90
2023/10/11 11:44:24;;;;;;;;;;;;;;;;;;5049515;28;19923;-90
2023/10/11 11:47:05;;;;;;;;;;;;;;;;;;5035562;28;19912;-90
2023/10/11 11:49:35;;;;;;;;;;;;;;;;;;5032819;28;19932;-91
2023/10/11 11:52:03;;;;;;;;;;;;;;;;;;5048574;28;19932;-90
2023/10/11 11:54:30;;;;;;;;;;;;;;;;;;5032863;28;19927;-91
2023/10/11 11:57:07;;;;;;;;;;;;;;;;;;5045428;28;20349;-92
2023/10/11 11:59:49;;;;;;;;;;;;;;;;;;;;;
2023/10/11 12:02:22;;;;;;;;;;;;;;;;;;5060376;28;20287;-91
2023/10/11 12:04:57;;;;;;;;;;;;;;;;;;5044294;28;19924;-90
2023/10/11 12:07:23;;;;;;;;;;;;;;;;;;5041250;28;19916;-90
2023/10/11 12:13:23;;;;;;;;;;;;;;;;;;5046636;28;19931;-88
2023/10/11 12:15:57;;;;;;;;;;;;;;;;;;5043060;28;20050;-89
2023/10/11 12:18:23;;;;;;;;;;;;;;;;;;5039536;28;19921;-91
2023/10/11 12:21:10;;;;;;;;;;;;;;;;;;5058027;28;20299;-90
2023/10/11 12:23:37;;;;;;;;;;;;;;;;;;5020973;28;20250;-93
2023/10/11 12:26:04;;;;;;;;;;;;;;;;;;5042740;28;19952;-90
2023/10/11 12:28:37;;;;;;;;;;;;;;;;;;5009766;28;19921;-90
2023/10/11 12:31:06;;;;;;;;;;;;;;;;;;5043832;28;19924;-90
2023/10/11 12:33:36;;;;;;;;;;;;;;;;;;5026513;28;19980;-90
2023/10/11 12:36:05;;;;;;;;;;;;;;;;;;5022157;28;19924;-91
2023/10/11 12:38:38;;;;;;;;;;;;;;;;;;5026296;28;19928;-92
2023/10/11 12:41:14;;;;;;;;;;;;;;;;;;5029897;28;19932;-90
2023/10/11 12:43:46;;;;;;;;;;;;;;;;;;5047543;28;19913;-90
2023/10/11 12:46:41;;;;;;;;;;;;;;;;;;4973950;28;20037;-88
2023/10/11 12:49:16;;;;;;;;;;;;;;;;;;4983063;28;20011;-89
2023/10/11 12:51:45;;;;;;;;;;;;;;;;;;5050057;28;19913;-90
2023/10/11 12:54:23;;;;;;;;;;;;;;;;;;5056448;28;19921;-93
2023/10/11 12:56:49;;;;;;;;;;;;;;;;;;5030919;28;20473;-89
2023/10/11 12:59:22;;;;;;;;;;;;;;;;;;5033126;28;19928;-91
2023/10/11 13:01:55;;;;;;;;;;;;;;;;;;5059657;28;20015;-92
2023/10/11 13:04:24;;;;;;;;;;;;;;;;;;5031975;28;19913;-92
2023/10/11 13:10:23;;;;;;;;;;;;;;;;;;5062396;28;19935;-90
2023/10/11 13:12:50;;;;;;;;;;;;;;;;;;5024466;28;19913;-89
2023/10/11 13:15:18;;;;;;;;;;;;;;;;;;5029029;28;19912;-90
2023/10/11 13:17:46;;;;;;;;;;;;;;;;;;5042557;28;19913;-91
2023/10/11 13:20:20;;;;;;;;;;;;;;;;;;5062664;28;19920;-91
2023/10/11 13:22:56;;;;;;;;;;;;;;;;;;5044657;28;19944;-91
2023/10/11 13:25:25;;;;;;;;;;;;;;;;;;5030751;28;19963;-89
2023/10/11 13:27:54;;;;;;;;;;;;;;;;;;5026986;28;19967;-89
2023/10/11 13:30:25;;;;;;;;;;;;;;;;;;5044714;28;19972;-91
2023/10/11 13:32:57;;;;;;;;;;;;;;;;;;5028168;28;19921;-92
2023/10/11 13:35:22;;;;;;;;;;;;;;;;;;5045617;28;19913;-92
2023/10/11 13:38:11;;;;;;;;;;;;;;;;;;5030785;28;19921;-90
2023/10/11 13:40:42;;;;;;;;;;;;;;;;;;5063275;28;19921;-90
2023/10/11 13:43:08;;;;;;;;;;;;;;;;;;5028101;28;19962;-89
2023/10/11 13:45:39;;;;;;;;;;;;;;;;;;5028681;28;19944;-91
2023/10/11 13:48:40;;;;;;;;;;;;;;;;;;5070221;28;19923;-89
2023/10/11 13:51:21;;;;;;;;;;;;;;;;;;5057220;28;19982;-88
2023/10/11 13:53:46;;;;;;;;;;;;;;;;;;5043506;28;19944;-87
2023/10/11 13:56:20;;;;;;;;;;;;;;;;;;5061012;28;19921;-89
2023/10/11 13:58:49;;;;;;;;;;;;;;;;;;5078944;28;19916;-88
2023/10/11 14:04:13;;;;;;;;;;;;;;;;;;5073641;28;20040;-90
2023/10/11 14:07:26;;;;;;;;;;;;;;;;;;5000980;28;19914;-90
2023/10/11 14:10:00;;;;;;;;;;;;;;;;;;5067868;28;19924;-88
2023/10/11 14:12:32;;;;;;;;;;;;;;;;;;5033164;28;19927;-90
2023/10/11 14:14:59;;;;;;;;;;;;;;;;;;5070793;28;20009;-90
2023/10/11 14:17:54;;;;;;;;;;;;;;;;;;5049215;28;19931;-89
2023/10/11 14:20:24;;;;;;;;;;;;;;;;;;5030766;28;19917;-90
2023/10/11 14:22:51;;;;;;;;;;;;;;;;;;4997658;28;20029;-90
2023/10/11 14:25:44;;;;;;;;;;;;;;;;;;4980212;28;19921;-90
2023/10/11 14:28:14;;;;;;;;;;;;;;;;;;4975896;28;19923;-91
2023/10/11 14:30:59;;;;;;;;;;;;;;;;;;4982899;28;19924;-90
2023/10/11 14:33:39;;;;;;;;;;;;;;;;;;4974799;28;19922;-90
2023/10/11 14:36:08;;;;;;;;;;;;;;;;;;4981847;28;19918;-88
2023/10/11 14:38:38;;;;;;;;;;;;;;;;;;4972575;28;19918;-90
2023/10/11 14:41:24;;;;;;;;;;;;;;;;;;4977096;28;19917;-90
2023/10/11 14:43:52;;;;;;;;;;;;;;;;;;4997197;28;20267;-91
2023/10/11 14:46:26;;;;;;;;;;;;;;;;;;4978032;28;19936;-92
2023/10/11 14:48:55;;;;;;;;;;;;;;;;;;4997592;28;19953;-91
2023/10/11 14:51:21;;;;;;;;;;;;;;;;;;5002199;28;19924;-89
2023/10/11 14:53:47;;;;;;;;;;;;;;;;;;5015798;28;19940;-91
2023/10/11 14:56:31;;;;;;;;;;;;;;;;;;5047308;28;19913;-90
2023/10/11 14:59:01;;;;;;;;;;;;;;;;;;5062453;28;19920;-89
2023/10/11 15:01:33;;;;;;;;;;;;;;;;;;5010290;28;19932;-87
2023/10/11 15:04:09;;;;;;;;;;;;;;;;;;5044588;28;19963;-88
2023/10/11 15:06:45;;;;;;;;;;;;;;;;;;5036856;28;19924;-91
2023/10/11 15:09:10;;;;;;;;;;;;;;;;;;5066982;28;19912;-88
2023/10/11 15:11:36;;;;;;;;;;;;;;;;;;5066901;28;19913;-91
2023/10/11 15:14:19;;;;;;;;;;;;;;;;;;;;;
2023/10/11 15:16:52;;;;;;;;;;;;;;;;;;5067225;28;19927;-88
2023/10/11 15:19:23;;;;;;;;;;;;;;;;;;5042583;28;19917;-89
2023/10/11 15:24:53;;;;;;;;;;;;;;;;;;5022021;28;19968;-90
2023/10/11 15:27:47;;;;;;;;;;;;;;;;;;5043295;28;19913;-90
2023/10/11 15:30:09;;;;;;;;;;;;;;;;;;5042009;28;19912;-90
2023/10/11 15:32:39;;;;;;;;;;;;;;;;;;5030635;28;19911;-90
2023/10/11 15:35:14;;;;;;;;;;;;;;;;;;5046418;28;19916;-89
2023/10/11 15:37:51;;;;;;;;;;;;;;;;;;5045750;28;19912;-89
2023/10/11 15:40:31;;;;;;;;;;;;;;;;;;5044074;28;20027;-91
2023/10/11 15:42:58;;;;;;;;;;;;;;;;;;5045180;28;19916;-90
2023/10/11 15:45:32;;;;;;;;;;;;;;;;;;5052319;28;19935;-89
2023/10/11 15:48:01;;;;;;;;;;;;;;;;;;5035756;28;19932;-90
2023/10/11 15:50:48;;;;;;;;;;;;;;;;;;5048808;28;19924;-88
2023/10/11 15:53:15;;;;;;;;;;;;;;;;;;5051612;28;19925;-88
2023/10/11 15:55:56;;;;;;;;;;;;;;;;;;5030670;28;19901;-89
2023/10/11 15:58:37;;;;;;;;;;;;;;;;;;5050695;28;19951;-88
2023/10/11 16:01:08;;;;;;;;;;;;;;;;;;5033067;28;19943;-90
2023/10/11 16:03:39;;;;;;;;;;;;;;;;;;5020250;28;19959;-88
2023/10/11 16:06:09;;;;;;;;;;;;;;;;;;5017106;28;19913;-89
2023/10/11 16:08:41;;;;;;;;;;;;;;;;;;5032444;28;19901;-87
2023/10/11 16:11:16;;;;;;;;;;;;;;;;;;5015651;28;19925;-85
2023/10/11 16:13:45;;;;;;;;;;;;;;;;;;5000005;28;19924;-88
2023/10/11 16:16:17;;;;;;;;;;;;;;;;;;5035521;28;19913;-88
2023/10/11 16:18:45;;;;;;;;;;;;;;;;;;5006446;28;19923;-88
2023/10/11 16:21:16;;;;;;;;;;;;;;;;;;5021301;28;19921;-89
2023/10/11 16:23:43;;;;;;;;;;;;;;;;;;5021998;28;19973;-87
2023/10/11 16:26:14;;;;;;;;;;;;;;;;;;5037830;28;19975;-89
2023/10/11 16:28:49;;;;;;;;;;;;;;;;;;5004576;28;19913;-88
2023/10/11 16:31:18;;;;;;;;;;;;;;;;;;5022035;28;20384;-87
2023/10/11 16:33:52;;;;;;;;;;;;;;;;;;5038527;28;20355;-88
2023/10/11 16:36:19;;;;;;;;;;;;;;;;;;5015115;28;19992;-88
2023/10/11 16:38:53;;;;;;;;;;;;;;;;;;5013515;28;20355;-89
2023/10/11 16:41:21;;;;;;;;;;;;;;;;;;5032661;28;19917;-87
2023/10/11 16:43:49;;;;;;;;;;;;;;;;;;5016456;28;20363;-87
2023/10/11 16:46:15;;;;;;;;;;;;;;;;;;5008974;28;19917;-89
2023/10/11 16:48:40;;;;;;;;;;;;;;;;;;5003889;28;19917;-87
2023/10/11 16:51:05;;;;;;;;;;;;;;;;;;5006849;28;19924;-89
2023/10/11 16:53:37;;;;;;;;;;;;;;;;;;5007392;28;19917;-89
2023/10/11 16:56:03;;;;;;;;;;;;;;;;;;5008098;28;19933;-87
2023/10/11 16:58:30;;;;;;;;;;;;;;;;;;5006928;28;19992;-90
2023/10/11 17:00:55;;;;;;;;;;;;;;;;;;5018960;28;19931;-90
2023/10/11 17:03:24;;;;;;;;;;;;;;;;;;5031970;28;19921;-89
2023/10/11 17:05:52;;;;;;;;;;;;;;;;;;5035366;28;20335;-88
2023/10/11 17:08:19;;;;;;;;;;;;;;;;;;5022029;28;20313;-88
2023/10/11 17:10:48;;;;;;;;;;;;;;;;;;5020123;28;20317;-89
2023/10/11 17:13:14;;;;;;;;;;;;;;;;;;5024628;28;19925;-89
2023/10/11 17:15:39;;;;;;;;;;;;;;;;;;5021642;28;19913;-89
2023/10/11 17:18:08;;;;;;;;;;;;;;;;;;5023204;28;19913;-88
2023/10/11 17:20:36;;;;;;;;;;;;;;;;;;5023906;28;19932;-88
2023/10/11 17:23:07;;;;;;;;;;;;;;;;;;5039300;28;19916;-87
2023/10/11 17:25:41;;;;;;;;;;;;;;;;;;5015503;28;20111;-90
2023/10/11 17:28:09;;;;;;;;;;;;;;;;;;5018251;28;20003;-89
2023/10/11 17:30:38;;;;;;;;;;;;;;;;;;5019122;28;19921;-87
2023/10/11 17:33:06;;;;;;;;;;;;;;;;;;5023052;28;19929;-88
2023/10/11 17:35:48;;;;;;;;;;;;;;;;;;5037904;28;19970;-87
2023/10/11 17:38:34;;;;;;;;;;;;;;;;;;5023611;28;19927;-86
2023/10/11 17:41:00;;;;;;;;;;;;;;;;;;5037992;28;19948;-88
2023/10/11 17:43:29;;;;;;;;;;;;;;;;;;5023182;28;19974;-87
2023/10/11 17:45:54;;;;;;;;;;;;;;;;;;5024531;28;19929;-87
2023/10/11 17:48:24;;;;;;;;;;;;;;;;;;5038046;28;20456;-88
2023/10/11 17:51:10;;;;;;;;;;;;;;;;;;5040663;28;19928;-85
2023/10/11 17:53:44;;;;;;;;;;;;;;;;;;5026022;28;19943;-87
2023/10/11 17:56:10;;;;;;;;;;;;;;;;;;5039485;28;20337;-86
2023/10/11 17:58:36;;;;;;;;;;;;;;;;;;5040528;28;19924;-87
2023/10/11 18:01:02;;;;;;;;;;;;;;;;;;5026976;28;19994;-85
2023/10/11 18:03:30;;;;;;;;;;;;;;;;;;5028463;28;20006;-85
2023/10/11 18:05:59;;;;;;;;;;;;;;;;;;5024557;28;19916;-86
2023/10/11 18:08:24;;;;;;;;;;;;;;;;;;5040136;28;20195;-87
2023/10/11 18:10:49;;;;;;;;;;;;;;;;;;5033641;28;19951;-88
2023/10/11 18:13:15;;;;;;;;;;;;;;;;;;5036799;28;19921;-85
2023/10/11 18:15:43;;;;;;;;;;;;;;;;;;5037106;28;20122;-84
2023/10/11 18:18:10;;;;;;;;;;;;;;;;;;5023279;28;19919;-87
2023/10/11 18:20:37;;;;;;;;;;;;;;;;;;5026641;28;19913;-86
2023/10/11 18:23:03;;;;;;;;;;;;;;;;;;5025595;28;20169;-89
2023/10/11 18:25:29;;;;;;;;;;;;;;;;;;5028051;28;19925;-88
2023/10/11 18:27:56;;;;;;;;;;;;;;;;;;5023553;28;19917;-87